Alpha Loyalty — 9HA3285 — position and weather

sailwx.info

Track history (hours):
 
Tides and Currents Weather Stations Pressure Air Temp Water Temp Dewpoint Dewpoint Depression Visibility Wind Speed Wind Dir Waves Ship Positions

Alpha Loyalty

Last reported at 2018-May-19 14:38 UTC. Time now 2018-Jun-21 02:38 UTC.
Position N 23°02' E 119°48'.
Warning: this ship's position is 32 days out of date.

Length 180 m; draft 13.4 m.

Type: Cargo ship. MMSI: 229380000.

Date/timePositionNaut miles runAvg speedWind from/ knotsBaromVisibWave heightAir tempDewpointWater temp
2018-May-19 14:38N 23°02' E 119°48'214.6
2018-May-19 14:30N 22°60' E 119°47'814.5
2018-May-19 13:58N 22°52' E 119°46'713.9
2018-May-19 13:26N 22°45' E 119°45'1013.1
2018-May-19 12:40N 22°35' E 119°43'1012.7
2018-May-19 11:53N 22°26' E 119°39'713.2
2018-May-19 11:22N 22°20' E 119°35'613.6
2018-May-19 10:58N 22°15' E 119°32'714.0
2018-May-19 10:29N 22°10' E 119°28'713.9
2018-May-19 10:00N 22°04' E 119°24'  
2018-May-14 11:30N 01°21' E 104°25'811.5
2018-May-14 10:49N 01°17' E 104°18'411.5
2018-May-14 10:29N 01°16' E 104°15'611.7
2018-May-14 09:59N 01°16' E 104°09'510.7
2018-May-14 09:30N 01°16' E 104°04'3 4.0
2018-May-14 08:49N 01°17' E 104°01'0 0.1
2018-May-14 08:28N 01°17' E 104°01'0 0.1
2018-May-14 07:59N 01°17' E 104°01'0 0.0
2018-May-14 07:30N 01°17' E 104°01'0 0.0
2018-May-14 07:00N 01°17' E 104°01'0 0.0
2018-May-14 06:30N 01°17' E 104°01'0 0.1
2018-May-14 06:00N 01°17' E 104°01'0 0.1
2018-May-14 05:31N 01°17' E 104°01'0 0.0
2018-May-14 04:58N 01°17' E 104°01'0 0.1
2018-May-14 04:30N 01°17' E 104°01'0 0.1
2018-May-14 04:00N 01°17' E 104°01'0 0.0
2018-May-14 03:26N 01°17' E 104°01'0 0.0
2018-May-14 02:58N 01°17' E 104°01'0 0.0
2018-May-14 02:29N 01°17' E 104°01'0 0.0
2018-May-14 01:57N 01°17' E 104°01'0 0.0
2018-May-14 01:30N 01°17' E 104°01'0 0.0
2018-May-14 01:00N 01°17' E 104°01'0 0.0
2018-May-14 00:30N 01°17' E 104°01'0 0.1
2018-May-13 23:59N 01°17' E 104°01'0 0.1
2018-May-13 23:23N 01°17' E 104°01'1 2.2
2018-May-13 22:59N 01°17' E 104°00'3 7.0
2018-May-13 22:30N 01°15' E 103°57'4 7.4
2018-May-13 21:59N 01°13' E 103°54'613.3
2018-May-13 21:30N 01°10' E 103°48'713.7
2018-May-13 21:00N 01°05' E 103°43'511.1
2018-May-13 20:30N 01°03' E 103°38'611.5
2018-May-13 20:00N 01°06' E 103°33'611.7
2018-May-13 19:30N 01°09' E 103°28'611.3
2018-May-13 18:58N 01°13' E 103°24'511.5
2018-May-13 18:30N 01°15' E 103°19'611.3
2018-May-13 17:59N 01°20' E 103°15'611.4
2018-May-13 17:29N 01°23' E 103°11'  
Track history (hours):
 
Tides and Currents Weather Stations Pressure Air Temp Water Temp Dewpoint Dewpoint Depression Visibility Wind Speed Wind Dir Waves Ship Positions

Alpha Loyalty

Last reported at 2018-May-19 14:38 UTC. Time now 2018-Jun-21 02:38 UTC.
Position N 23°02' E 119°48'.
Warning: this ship's position is 32 days out of date.

Length 180 m; draft 13.4 m.

Type: Cargo ship. MMSI: 229380000.

Date/timePositionNaut miles runAvg speedWind from/ knotsBaromVisibWave heightAir tempDewpointWater temp
2018-May-19 14:38N 23°02' E 119°48'214.6
2018-May-19 14:30N 22°60' E 119°47'814.5
2018-May-19 13:58N 22°52' E 119°46'713.9
2018-May-19 13:26N 22°45' E 119°45'1013.1
2018-May-19 12:40N 22°35' E 119°43'1012.7
2018-May-19 11:53N 22°26' E 119°39'713.2
2018-May-19 11:22N 22°20' E 119°35'613.6
2018-May-19 10:58N 22°15' E 119°32'714.0
2018-May-19 10:29N 22°10' E 119°28'713.9
2018-May-19 10:00N 22°04' E 119°24'  
2018-May-14 11:30N 01°21' E 104°25'811.5
2018-May-14 10:49N 01°17' E 104°18'411.5
2018-May-14 10:29N 01°16' E 104°15'611.7
2018-May-14 09:59N 01°16' E 104°09'510.7
2018-May-14 09:30N 01°16' E 104°04'3 4.0
2018-May-14 08:49N 01°17' E 104°01'0 0.1
2018-May-14 08:28N 01°17' E 104°01'0 0.1
2018-May-14 07:59N 01°17' E 104°01'0 0.0
2018-May-14 07:30N 01°17' E 104°01'0 0.0
2018-May-14 07:00N 01°17' E 104°01'0 0.0
2018-May-14 06:30N 01°17' E 104°01'0 0.1
2018-May-14 06:00N 01°17' E 104°01'0 0.1
2018-May-14 05:31N 01°17' E 104°01'0 0.0
2018-May-14 04:58N 01°17' E 104°01'0 0.1
2018-May-14 04:30N 01°17' E 104°01'0 0.1
2018-May-14 04:00N 01°17' E 104°01'0 0.0
2018-May-14 03:26N 01°17' E 104°01'0 0.0
2018-May-14 02:58N 01°17' E 104°01'0 0.0
2018-May-14 02:29N 01°17' E 104°01'0 0.0
2018-May-14 01:57N 01°17' E 104°01'0 0.0
2018-May-14 01:30N 01°17' E 104°01'0 0.0
2018-May-14 01:00N 01°17' E 104°01'0 0.0
2018-May-14 00:30N 01°17' E 104°01'0 0.1
2018-May-13 23:59N 01°17' E 104°01'0 0.1
2018-May-13 23:23N 01°17' E 104°01'1 2.2
2018-May-13 22:59N 01°17' E 104°00'3 7.0
2018-May-13 22:30N 01°15' E 103°57'4 7.4
2018-May-13 21:59N 01°13' E 103°54'613.3
2018-May-13 21:30N 01°10' E 103°48'713.7
2018-May-13 21:00N 01°05' E 103°43'511.1
2018-May-13 20:30N 01°03' E 103°38'611.5
2018-May-13 20:00N 01°06' E 103°33'611.7
2018-May-13 19:30N 01°09' E 103°28'611.3
2018-May-13 18:58N 01°13' E 103°24'511.5
2018-May-13 18:30N 01°15' E 103°19'611.3
2018-May-13 17:59N 01°20' E 103°15'611.4
2018-May-13 17:29N 01°23' E 103°11'  

Dump ship's entire track history